Time;durP1;ratioP1;P1;durP2;ratioP2;P2;SDS_P1;SDS_P2;PMS_P1;PMS_P2;Temp;Humidity;BMP_temperature;BMP_pressure;BME280_temperature;BME280_humidity;BME280_pressure;Samples;Min_cycle;Max_cycle;Signal;HPM_P1;HPM_P2
2022/07/05 00:01:04;;;;;;;3.47;1.30;;;13.60;99.90;;;;;;6238700;23;20020;-67
2022/07/05 00:03:30;;;;;;;2.15;1.27;;;13.60;99.90;;;;;;6238869;22;20016;-67
2022/07/05 00:05:56;;;;;;;2.70;1.30;;;13.50;99.90;;;;;;6237676;23;20388;-67
2022/07/05 00:08:22;;;;;;;4.13;1.33;;;13.40;99.90;;;;;;6238066;23;20108;-67
2022/07/05 00:10:48;;;;;;;3.63;1.40;;;13.30;99.90;;;;;;6238481;23;20056;-67
2022/07/05 00:13:15;;;;;;;2.25;1.30;;;13.20;99.90;;;;;;6238136;23;20016;-66
2022/07/05 00:15:41;;;;;;;3.55;1.38;;;13.10;99.90;;;;;;6236553;23;20039;-67
2022/07/05 00:18:07;;;;;;;3.40;1.40;;;13.00;99.90;;;;;;6239580;23;20020;-67
2022/07/05 00:20:33;;;;;;;5.63;1.52;;;12.90;99.90;;;;;;6238757;23;20031;-66
2022/07/05 00:22:59;;;;;;;6.85;1.00;;;12.90;99.90;;;;;;6212137;23;20451;-66
2022/07/05 00:25:25;;;;;;;3.42;1.25;;;12.80;99.90;;;;;;6239353;23;20070;-67
2022/07/05 00:27:53;;;;;;;2.75;1.35;;;12.70;99.90;;;;;;6236569;23;20082;-67
2022/07/05 00:30:19;;;;;;;1.90;1.33;;;12.60;99.90;;;;;;6239498;23;20020;-67
2022/07/05 00:32:45;;;;;;;2.08;1.33;;;12.60;99.90;;;;;;6238673;23;20454;-67
2022/07/05 00:35:11;;;;;;;3.50;1.52;;;12.50;99.90;;;;;;6262960;22;20020;-67
2022/07/05 00:37:37;;;;;;;3.58;2.05;;;12.40;99.90;;;;;;6238128;22;20073;-67
2022/07/05 00:40:04;;;;;;;5.20;1.75;;;12.40;99.90;;;;;;6237262;23;20020;-67
2022/07/05 00:42:30;;;;;;;1.95;1.30;;;12.40;99.90;;;;;;6236937;23;20047;-66
2022/07/05 00:44:56;;;;;;;3.88;1.70;;;12.40;99.90;;;;;;6236655;23;20023;-67
2022/07/05 00:47:23;;;;;;;4.07;1.52;;;12.50;99.90;;;;;;6239233;23;20431;-66
2022/07/05 00:49:49;;;;;;;2.88;1.52;;;12.50;99.90;;;;;;6239075;22;20016;-66
2022/07/05 00:52:15;;;;;;;2.55;1.52;;;12.60;99.90;;;;;;6239325;22;20100;-66
2022/07/05 00:54:42;;;;;;;2.22;1.20;;;12.70;99.90;;;;;;6211234;23;20016;-66
2022/07/05 00:57:07;;;;;;;3.08;1.25;;;12.70;99.90;;;;;;6236928;23;20055;-66
2022/07/05 00:59:34;;;;;;;5.07;1.55;;;12.70;99.90;;;;;;6238417;23;20020;-66
2022/07/05 01:02:00;;;;;;;1.60;1.40;;;12.70;99.90;;;;;;6238637;23;20024;-66
2022/07/05 01:04:26;;;;;;;2.15;1.25;;;12.80;99.90;;;;;;6239372;23;20017;-66
2022/07/05 01:06:53;;;;;;;6.35;1.88;;;12.80;99.90;;;;;;6237299;23;20020;-66
2022/07/05 01:09:20;;;;;;;2.17;1.45;;;12.80;99.90;;;;;;6239436;23;20024;-66
2022/07/05 01:11:47;;;;;;;5.78;1.90;;;12.80;99.90;;;;;;6237927;23;20126;-66
2022/07/05 01:14:16;;;;;;;2.47;1.50;;;12.80;99.90;;;;;;6239430;23;20051;-67
2022/07/05 01:16:42;;;;;;;1.75;1.55;;;12.80;99.90;;;;;;6238024;23;20020;-66
2022/07/05 01:19:10;;;;;;;3.63;1.55;;;12.80;99.90;;;;;;6238978;23;20012;-66
2022/07/05 01:21:41;;;;;;;3.63;1.35;;;12.70;99.90;;;;;;6238120;23;20031;-66
2022/07/05 01:24:09;;;;;;;3.88;1.48;;;12.80;99.90;;;;;;6236558;23;20012;-67
2022/07/05 01:26:36;;;;;;;3.33;1.60;;;12.80;99.90;;;;;;6237057;23;20026;-67
2022/07/05 01:29:01;;;;;;;3.70;1.83;;;12.80;99.90;;;;;;6237573;23;20017;-66
2022/07/05 01:31:27;;;;;;;5.97;1.55;;;12.80;99.90;;;;;;6239073;23;20245;-67
2022/07/05 01:33:53;;;;;;;4.53;1.38;;;12.80;99.90;;;;;;6235787;23;20016;-66
2022/07/05 01:36:19;;;;;;;5.68;2.38;;;12.80;99.90;;;;;;6238505;22;20050;-66
2022/07/05 01:38:45;;;;;;;3.78;1.60;;;12.80;99.90;;;;;;6262068;22;20024;-66
2022/07/05 01:41:11;;;;;;;3.92;1.77;;;12.80;99.90;;;;;;6261647;22;20024;-66
2022/07/05 01:43:37;;;;;;;4.97;1.70;;;12.80;99.90;;;;;;6237410;23;20083;-66
2022/07/05 01:46:05;;;;;;;6.63;1.95;;;12.80;99.90;;;;;;6237482;23;20114;-66
2022/07/05 01:48:34;;;;;;;5.75;1.77;;;12.80;99.90;;;;;;6237780;23;20032;-67
2022/07/05 01:51:18;;;;;;;6.10;1.95;;;12.80;99.90;;;;;;6236118;23;20020;-66
2022/07/05 01:53:46;;;;;;;3.42;2.00;;;12.70;99.90;;;;;;6235945;23;20412;-66
2022/07/05 01:56:12;;;;;;;1.75;1.55;;;12.60;99.90;;;;;;6234893;23;20848;-66
2022/07/05 01:58:39;;;;;;;2.45;1.77;;;12.60;99.90;;;;;;6235033;23;20055;-66
2022/07/05 02:01:04;;;;;;;3.42;1.80;;;12.60;99.90;;;;;;6234964;23;20453;-66
2022/07/05 02:03:31;;;;;;;2.65;1.77;;;12.60;99.90;;;;;;6234839;23;20031;-66
2022/07/05 02:05:57;;;;;;;3.67;1.85;;;12.60;99.90;;;;;;6236064;23;20070;-66
2022/07/05 02:08:29;;;;;;;1.85;1.70;;;12.60;99.90;;;;;;6235524;23;20371;-66
2022/07/05 02:10:55;;;;;;;4.28;1.90;;;12.50;99.90;;;;;;6237486;23;20058;-66
2022/07/05 02:13:21;;;;;;;4.05;1.80;;;12.50;99.90;;;;;;6260092;22;20103;-66
2022/07/05 02:15:47;;;;;;;3.10;1.85;;;12.50;99.90;;;;;;6237295;23;20012;-67
2022/07/05 02:18:12;;;;;;;4.95;1.73;;;12.40;99.90;;;;;;6236851;23;20019;-66
2022/07/05 02:20:39;;;;;;;3.10;2.35;;;12.40;99.90;;;;;;6236419;23;20024;-67
2022/07/05 02:23:05;;;;;;;2.35;1.50;;;12.30;99.90;;;;;;6237158;23;20070;-66
2022/07/05 02:25:31;;;;;;;2.00;1.42;;;12.30;99.90;;;;;;6236852;23;20350;-66
2022/07/05 02:27:57;;;;;;;2.97;2.10;;;12.20;99.90;;;;;;6235745;23;20344;-66
2022/07/05 02:30:22;;;;;;;2.97;1.92;;;12.20;99.90;;;;;;6235776;23;20042;-67
2022/07/05 02:32:48;;;;;;;4.68;1.70;;;12.20;99.90;;;;;;6237007;23;20012;-66
2022/07/05 02:35:14;;;;;;;2.67;2.47;;;12.20;99.90;;;;;;6209820;23;20028;-66
2022/07/05 02:37:40;;;;;;;2.20;2.00;;;12.20;99.90;;;;;;6236474;23;20016;-66
2022/07/05 02:40:10;;;;;;;3.33;1.88;;;12.20;99.90;;;;;;6236810;23;20020;-66
2022/07/05 02:42:37;;;;;;;5.07;2.40;;;12.20;99.90;;;;;;6236002;22;20047;-67
2022/07/05 02:45:03;;;;;;;5.13;2.47;;;12.20;99.90;;;;;;6235356;23;20023;-66
2022/07/05 02:47:30;;;;;;;2.08;1.85;;;12.20;99.90;;;;;;6183911;23;1185669;-66
2022/07/05 02:49:57;;;;;;;7.25;2.13;;;12.20;99.90;;;;;;6236906;23;20558;-66
2022/07/05 02:52:23;;;;;;;2.88;1.83;;;12.10;99.90;;;;;;6237802;23;20093;-66
2022/07/05 02:54:49;;;;;;;5.88;2.00;;;12.10;99.90;;;;;;6237909;23;20419;-66
2022/07/05 02:57:15;;;;;;;3.78;1.70;;;12.10;99.90;;;;;;6236397;23;20020;-66
2022/07/05 02:59:40;;;;;;;4.05;1.95;;;12.10;99.90;;;;;;6237180;23;20099;-66
2022/07/05 03:02:06;;;;;;;5.32;1.88;;;12.10;99.90;;;;;;6237801;22;20020;-66
2022/07/05 03:04:32;;;;;;;5.68;1.92;;;12.10;99.90;;;;;;6235522;23;20012;-66
2022/07/05 03:06:57;;;;;;;6.22;2.55;;;12.10;99.90;;;;;;6211609;23;20020;-66
2022/07/05 03:09:23;;;;;;;4.43;2.10;;;12.10;99.90;;;;;;6236708;23;20050;-66
2022/07/05 03:11:49;;;;;;;5.88;2.63;;;12.10;99.90;;;;;;6238452;23;20495;-66
2022/07/05 03:14:14;;;;;;;9.40;2.88;;;12.10;99.90;;;;;;6261058;22;20024;-66
2022/07/05 03:16:40;;;;;;;2.10;2.00;;;12.10;99.90;;;;;;6235503;23;20354;-66
2022/07/05 03:19:06;;;;;;;5.32;2.35;;;12.10;99.90;;;;;;6235741;23;20024;-66
2022/07/05 03:21:31;;;;;;;7.05;2.28;;;12.00;99.90;;;;;;6235208;23;20020;-66
2022/07/05 03:23:57;;;;;;;3.08;1.92;;;12.10;99.90;;;;;;6238389;23;20027;-66
2022/07/05 03:26:23;;;;;;;5.03;2.42;;;12.10;99.90;;;;;;6234596;23;20016;-67
2022/07/05 03:28:48;;;;;;;7.65;2.28;;;12.10;99.90;;;;;;6211222;23;20446;-67
2022/07/05 03:31:14;;;;;;;3.72;2.20;;;12.10;99.90;;;;;;6238742;23;20225;-66
2022/07/05 03:33:40;;;;;;;5.97;2.10;;;12.00;99.90;;;;;;6237842;23;20012;-67
2022/07/05 03:36:06;;;;;;;6.13;2.35;;;12.00;99.90;;;;;;6240416;23;20016;-66
2022/07/05 03:38:33;;;;;;;3.53;1.77;;;12.00;99.90;;;;;;6239162;23;20020;-66
2022/07/05 03:40:58;;;;;;;8.55;2.35;;;12.00;99.90;;;;;;6238580;23;20050;-67
2022/07/05 03:43:24;;;;;;;10.80;2.75;;;12.00;99.90;;;;;;6237905;22;20020;-66
2022/07/05 03:45:50;;;;;;;6.88;2.03;;;12.00;99.90;;;;;;6238792;23;20082;-65
2022/07/05 03:48:15;;;;;;;5.22;2.08;;;12.00;99.90;;;;;;6238205;23;20359;-67
2022/07/05 03:50:41;;;;;;;2.03;1.80;;;12.00;99.90;;;;;;6240338;23;20101;-66
2022/07/05 03:53:07;;;;;;;5.07;2.13;;;12.00;99.90;;;;;;6263166;22;20434;-66
2022/07/05 03:55:32;;;;;;;3.35;2.05;;;12.00;99.90;;;;;;6239344;22;20207;-66
2022/07/05 03:57:58;;;;;;;3.58;1.60;;;12.00;99.90;;;;;;6239624;23;20024;-66
2022/07/05 04:00:24;;;;;;;3.38;2.42;;;12.10;99.90;;;;;;6236533;23;20382;-66
2022/07/05 04:02:49;;;;;;;2.28;1.83;;;12.10;99.90;;;;;;6238457;23;20085;-66
2022/07/05 04:05:15;;;;;;;3.88;1.88;;;12.10;99.90;;;;;;6211252;23;20470;-66
2022/07/05 04:07:52;;;;;;;6.32;2.85;;;12.10;99.90;;;;;;6213021;23;20378;-66
2022/07/05 04:10:18;;;;;;;3.92;1.92;;;12.20;99.90;;;;;;6237040;23;20073;-66
2022/07/05 04:12:45;;;;;;;5.63;1.85;;;12.20;99.90;;;;;;6239282;23;20091;-66
2022/07/05 04:15:11;;;;;;;5.47;2.15;;;12.20;99.90;;;;;;6239429;23;20339;-67
2022/07/05 04:17:49;;;;;;;4.65;1.80;;;12.20;99.90;;;;;;6236593;23;20020;-66
2022/07/05 04:20:15;;;;;;;3.50;2.05;;;12.20;99.90;;;;;;6239857;23;20012;-66
2022/07/05 04:22:42;;;;;;;6.45;2.25;;;12.30;99.90;;;;;;6236428;23;20024;-66
2022/07/05 04:25:17;;;;;;;5.68;2.15;;;12.30;99.90;;;;;;6239825;23;20016;-67
2022/07/05 04:27:48;;;;;;;3.35;1.98;;;12.30;99.90;;;;;;6237574;23;20020;-66
2022/07/05 04:30:14;;;;;;;1.90;1.75;;;12.30;99.90;;;;;;6238299;22;20012;-66
2022/07/05 04:32:41;;;;;;;4.30;2.00;;;12.40;99.90;;;;;;6239653;23;20360;-66
2022/07/05 04:35:07;;;;;;;3.05;1.88;;;12.40;99.90;;;;;;6262157;22;20012;-66
2022/07/05 04:37:33;;;;;;;3.63;2.10;;;12.40;99.90;;;;;;6239278;23;20095;-66
2022/07/05 04:39:59;;;;;;;8.45;2.40;;;12.50;99.90;;;;;;6238200;23;20511;-66
2022/07/05 04:42:24;;;;;;;4.25;2.20;;;12.60;99.90;;;;;;6237189;23;20058;-67
2022/07/05 04:44:50;;;;;;;4.10;2.28;;;12.60;99.90;;;;;;6238814;22;20095;-66
2022/07/05 04:47:16;;;;;;;5.18;2.05;;;12.60;99.90;;;;;;6237780;23;20030;-67
2022/07/05 04:49:42;;;;;;;2.78;2.00;;;12.70;99.90;;;;;;6239351;23;20038;-66
2022/07/05 04:52:08;;;;;;;5.45;2.28;;;12.80;99.90;;;;;;6236677;23;20091;-66
2022/07/05 04:54:33;;;;;;;5.82;2.30;;;12.90;99.90;;;;;;6262897;22;20027;-67
2022/07/05 04:56:59;;;;;;;6.80;2.15;;;13.00;99.90;;;;;;6238190;23;20050;-66
2022/07/05 04:59:25;;;;;;;2.72;1.70;;;13.10;99.90;;;;;;6236899;23;20436;-66
2022/07/05 05:01:50;;;;;;;8.13;2.13;;;13.20;99.90;;;;;;6238277;23;20435;-67
2022/07/05 05:04:16;;;;;;;2.15;1.67;;;13.30;99.90;;;;;;6262443;22;20035;-67
2022/07/05 05:06:42;;;;;;;4.47;2.03;;;13.40;99.90;;;;;;6239303;23;20055;-66
2022/07/05 05:09:07;;;;;;;5.40;1.52;;;13.40;99.90;;;;;;6238193;22;20096;-67
2022/07/05 05:11:33;;;;;;;2.83;1.80;;;13.60;99.90;;;;;;6239266;23;20020;-66
2022/07/05 05:13:59;;;;;;;5.57;1.77;;;14.00;99.90;;;;;;6236291;23;20043;-66
2022/07/05 05:16:24;;;;;;;3.30;1.85;;;14.50;99.90;;;;;;6239131;22;20095;-66
2022/07/05 05:18:50;;;;;;;3.00;1.67;;;14.60;99.90;;;;;;6236235;23;20473;-66
2022/07/05 05:21:16;;;;;;;2.97;1.75;;;14.60;99.90;;;;;;6238722;23;20020;-67
2022/07/05 05:23:41;;;;;;;7.30;1.92;;;14.50;99.90;;;;;;6211392;23;20024;-66
2022/07/05 05:26:07;;;;;;;5.18;1.90;;;14.50;99.90;;;;;;6236912;23;20012;-67
2022/07/05 05:28:33;;;;;;;5.72;1.90;;;14.40;99.90;;;;;;6236872;23;20012;-67
2022/07/05 05:30:59;;;;;;;4.40;1.67;;;14.40;99.90;;;;;;6236089;23;20020;-66
2022/07/05 05:33:25;;;;;;;6.43;1.83;;;14.40;99.90;;;;;;6262565;22;20388;-66
2022/07/05 05:35:51;;;;;;;7.47;1.70;;;14.50;99.90;;;;;;6236044;23;20027;-67
2022/07/05 05:38:16;;;;;;;4.20;1.90;;;14.50;99.90;;;;;;6262629;22;20039;-66
2022/07/05 05:40:44;;;;;;;9.30;2.03;;;14.60;99.90;;;;;;6237659;22;20008;-66
2022/07/05 05:43:10;;;;;;;4.40;1.73;;;14.90;99.90;;;;;;6238980;23;20028;-66
2022/07/05 05:45:36;;;;;;;4.50;1.88;;;15.20;99.90;;;;;;6238137;23;20024;-66
2022/07/05 05:48:02;;;;;;;7.97;1.50;;;15.20;99.90;;;;;;6237561;23;20024;-66
2022/07/05 05:50:33;;;;;;;3.15;1.60;;;15.20;99.90;;;;;;6238778;23;20013;-67
2022/07/05 05:52:59;;;;;;;7.40;1.80;;;15.20;99.90;;;;;;6237394;23;20073;-66
2022/07/05 05:55:27;;;;;;;6.45;2.45;;;15.20;99.90;;;;;;6238117;23;20526;-66
2022/07/05 05:57:53;;;;;;;9.10;1.80;;;15.20;99.90;;;;;;6235760;23;20406;-67
2022/07/05 06:00:20;;;;;;;4.07;1.60;;;15.20;99.90;;;;;;6236512;23;20024;-66
2022/07/05 06:02:47;;;;;;;4.63;1.20;;;15.30;99.90;;;;;;6238699;22;20039;-66
2022/07/05 06:05:13;;;;;;;3.53;1.40;;;15.40;99.90;;;;;;6237701;23;20027;-67
2022/07/05 06:07:55;;;;;;;3.83;1.60;;;15.40;99.90;;;;;;6236570;22;20630;-67
2022/07/05 06:10:30;;;;;;;1.83;1.30;;;15.50;99.90;;;;;;6235036;23;20121;-67
2022/07/05 06:12:58;;;;;;;1.52;1.10;;;15.50;99.90;;;;;;6237385;23;20020;-67
2022/07/05 06:15:25;;;;;;;2.97;1.27;;;15.60;99.90;;;;;;6235371;23;20024;-67
2022/07/05 06:17:51;;;;;;;4.13;1.17;;;15.60;99.90;;;;;;6236985;23;20389;-67
2022/07/05 06:20:22;;;;;;;3.08;1.20;;;15.70;99.90;;;;;;6238928;23;20074;-66
2022/07/05 06:22:49;;;;;;;5.65;1.10;;;15.80;99.90;;;;;;6236093;23;20091;-68
2022/07/05 06:25:15;;;;;;;3.33;1.00;;;15.90;99.90;;;;;;6262456;22;20016;-67
2022/07/05 06:27:46;;;;;;;3.58;1.30;;;15.90;99.90;;;;;;6236793;23;20073;-67
2022/07/05 06:30:17;;;;;;;3.45;1.30;;;16.10;99.90;;;;;;6238875;23;20335;-67
2022/07/05 06:32:44;;;;;;;4.25;1.02;;;16.10;99.90;;;;;;6235413;23;20020;-67
2022/07/05 06:35:10;;;;;;;1.42;1.08;;;16.20;99.90;;;;;;6236500;23;20020;-67
2022/07/05 06:37:54;;;;;;;4.50;1.58;;;16.20;99.90;;;;;;6236318;23;20024;-67
2022/07/05 06:40:22;;;;;;;6.63;1.10;;;16.30;99.90;;;;;;6237145;23;20046;-68
2022/07/05 06:42:50;;;;;;;2.78;1.00;;;16.40;99.90;;;;;;6236876;23;20082;-68
2022/07/05 06:45:16;;;;;;;4.88;1.48;;;16.40;99.90;;;;;;6237296;23;20042;-68
2022/07/05 06:47:42;;;;;;;3.20;1.15;;;16.60;99.90;;;;;;6237686;23;20455;-67
2022/07/05 06:50:08;;;;;;;5.85;1.27;;;16.60;99.90;;;;;;6235813;23;20063;-67
2022/07/05 06:52:34;;;;;;;4.25;1.52;;;16.60;99.90;;;;;;6235686;23;20343;-68
2022/07/05 06:55:01;;;;;;;3.83;1.20;;;16.60;99.90;;;;;;6238708;23;20091;-68
2022/07/05 06:57:26;;;;;;;2.67;0.90;;;16.80;99.90;;;;;;6234793;23;20451;-67
2022/07/05 06:59:52;;;;;;;7.50;0.90;;;16.90;99.90;;;;;;6236960;23;20024;-68
2022/07/05 07:02:19;;;;;;;9.32;1.35;;;16.90;99.90;;;;;;6235153;23;20343;-67
2022/07/05 07:04:46;;;;;;;2.47;0.88;;;16.90;99.90;;;;;;6238990;23;20055;-67
2022/07/05 07:09:57;;;;;;;3.58;1.13;;;17.10;99.90;;;;;;6240328;23;20028;-68
2022/07/05 07:12:23;;;;;;;4.78;0.80;;;17.40;99.90;;;;;;6238589;23;20078;-68
2022/07/05 07:14:49;;;;;;;5.95;1.17;;;17.50;99.90;;;;;;6238722;23;20016;-68
2022/07/05 07:17:15;;;;;;;8.60;1.42;;;17.70;99.90;;;;;;6238532;23;20024;-68
2022/07/05 07:19:40;;;;;;;4.75;1.02;;;17.90;99.90;;;;;;6238468;23;20085;-68
2022/07/05 07:22:06;;;;;;;1.88;0.70;;;18.10;99.90;;;;;;6240700;23;20016;-68
2022/07/05 07:24:32;;;;;;;2.70;0.70;;;18.40;99.90;;;;;;6238770;23;20012;-68
2022/07/05 07:27:04;;;;;;;5.25;1.50;;;18.50;99.40;;;;;;6238647;23;20120;-68
2022/07/05 07:29:35;;;;;;;1.70;0.80;;;18.90;97.50;;;;;;6264082;22;20017;-68
2022/07/05 07:32:01;;;;;;;2.38;0.70;;;19.20;98.00;;;;;;6237439;23;20045;-68
2022/07/05 07:34:28;;;;;;;2.13;0.90;;;19.40;83.20;;;;;;6238077;23;20024;-67
2022/07/05 07:36:54;;;;;;;2.92;0.80;;;19.10;88.20;;;;;;6236833;23;20020;-67
2022/07/05 07:39:20;;;;;;;2.78;0.55;;;19.00;82.80;;;;;;6238951;23;20095;-68
2022/07/05 07:41:47;;;;;;;2.92;0.57;;;18.70;92.70;;;;;;6236618;23;20023;-67
2022/07/05 07:44:13;;;;;;;3.72;0.98;;;18.90;94.70;;;;;;6238322;23;20451;-68
2022/07/05 07:46:39;;;;;;;5.45;0.63;;;19.20;87.10;;;;;;6239144;23;20024;-68
2022/07/05 07:49:05;;;;;;;4.97;0.80;;;19.10;76.60;;;;;;6239118;23;20447;-68
2022/07/05 07:51:32;;;;;;;2.53;0.73;;;19.00;65.00;;;;;;6238826;22;20024;-68
2022/07/05 07:53:58;;;;;;;2.30;0.85;;;19.00;66.60;;;;;;6236410;23;20766;-68
2022/07/05 07:56:23;;;;;;;1.77;0.70;;;19.00;69.90;;;;;;6236519;23;20107;-68
2022/07/05 07:58:49;;;;;;;5.22;0.90;;;18.90;80.50;;;;;;6232982;23;20023;-68
2022/07/05 08:01:15;;;;;;;0.50;0.47;;;18.80;76.70;;;;;;6237503;23;20474;-67
2022/07/05 08:03:41;;;;;;;8.93;0.80;;;18.80;86.80;;;;;;6236192;23;20069;-67
2022/07/05 08:06:08;;;;;;;1.67;0.63;;;18.80;76.10;;;;;;6234624;22;20027;-67
2022/07/05 08:08:34;;;;;;;3.25;0.88;;;19.00;81.10;;;;;;6236645;23;20051;-68
2022/07/05 08:11:00;;;;;;;1.08;0.50;;;19.20;61.70;;;;;;6235363;23;20451;-68
2022/07/05 08:13:26;;;;;;;3.78;0.90;;;19.40;55.40;;;;;;6237742;23;20066;-68
2022/07/05 08:15:52;;;;;;;10.20;0.60;;;19.80;53.70;;;;;;6237435;23;20020;-68
2022/07/05 08:23:47;;;;;;;1.88;0.50;;;19.40;75.50;;;;;;6235331;23;20028;-68
2022/07/05 08:26:12;;;;;;;4.20;0.95;;;19.30;70.00;;;;;;6238996;23;20152;-68
2022/07/05 08:28:38;;;;;;;3.40;0.73;;;19.10;66.30;;;;;;6235118;23;20731;-67
2022/07/05 08:31:04;;;;;;;2.28;0.98;;;18.80;78.00;;;;;;6212338;23;20370;-67
2022/07/05 08:33:29;;;;;;;1.20;0.52;;;18.50;82.70;;;;;;6236568;23;20016;-67
2022/07/05 08:35:55;;;;;;;2.95;0.75;;;18.30;77.20;;;;;;6238727;22;20058;-68
2022/07/05 08:38:20;;;;;;;1.52;0.52;;;18.10;81.10;;;;;;6236126;23;20020;-68
2022/07/05 08:40:51;;;;;;;6.72;0.90;;;18.00;82.00;;;;;;6234721;23;20016;-68
2022/07/05 08:43:18;;;;;;;4.80;0.75;;;18.10;78.30;;;;;;6237028;23;20378;-68
2022/07/05 08:45:44;;;;;;;4.15;0.90;;;18.30;80.10;;;;;;6235570;23;20040;-67
2022/07/05 08:48:11;;;;;;;4.32;0.80;;;18.50;82.60;;;;;;6239191;23;20027;-67
2022/07/05 08:50:39;;;;;;;4.03;0.55;;;18.50;79.80;;;;;;6237341;23;20016;-68
2022/07/05 08:53:05;;;;;;;7.13;1.05;;;18.60;64.90;;;;;;6239547;23;20438;-68
2022/07/05 08:55:33;;;;;;;2.47;1.00;;;18.70;65.40;;;;;;6237223;23;20451;-68
2022/07/05 08:57:59;;;;;;;3.00;0.50;;;19.00;78.40;;;;;;6237516;23;20095;-68
2022/07/05 09:00:25;;;;;;;6.95;0.90;;;19.00;54.70;;;;;;6238119;23;20537;-67
2022/07/05 09:02:52;;;;;;;4.47;0.98;;;19.10;51.20;;;;;;6235428;23;20059;-67
2022/07/05 09:05:20;;;;;;;1.85;0.50;;;19.20;58.50;;;;;;6262847;22;20070;-68
2022/07/05 09:07:58;;;;;;;3.17;1.13;;;19.30;54.30;;;;;;6235465;23;20077;-67
2022/07/05 09:10:26;;;;;;;7.80;0.80;;;19.20;67.10;;;;;;6239265;23;20103;-67
2022/07/05 09:12:53;;;;;;;2.75;0.80;;;19.30;78.00;;;;;;6237854;23;20024;-67
2022/07/05 09:15:19;;;;;;;1.50;0.85;;;19.10;48.30;;;;;;6236876;23;20020;-67
2022/07/05 09:17:45;;;;;;;3.53;0.80;;;18.70;67.90;;;;;;6236458;23;20031;-68
2022/07/05 09:20:16;;;;;;;3.45;0.80;;;18.50;70.90;;;;;;6237421;23;20035;-68
2022/07/05 09:22:47;;;;;;;2.78;0.75;;;18.70;80.60;;;;;;6237362;23;20118;-67
2022/07/05 09:25:15;;;;;;;4.40;0.98;;;18.90;83.80;;;;;;6235520;23;20138;-68
2022/07/05 09:27:58;;;;;;;3.65;0.68;;;18.90;74.50;;;;;;6238436;23;20374;-68
2022/07/05 09:30:38;;;;;;;1.77;0.70;;;18.90;71.60;;;;;;6237875;23;20016;-67
2022/07/05 09:33:09;;;;;;;4.45;0.80;;;18.80;79.00;;;;;;6237478;22;20020;-67
2022/07/05 09:35:54;;;;;;;6.28;1.10;;;18.80;90.00;;;;;;6238776;23;20018;-68
2022/07/05 09:38:22;;;;;;;2.13;0.82;;;18.90;78.20;;;;;;6235841;23;20026;-67
2022/07/05 09:40:50;;;;;;;4.43;1.52;;;19.00;69.50;;;;;;6238806;23;20016;-67
2022/07/05 09:43:18;;;;;;;2.83;0.80;;;19.20;69.80;;;;;;6238580;23;20019;-67
2022/07/05 09:45:55;;;;;;;4.68;1.00;;;19.10;79.20;;;;;;6210407;23;20024;-67
2022/07/05 09:48:21;;;;;;;1.88;0.82;;;19.00;80.20;;;;;;6237575;23;20020;-67
2022/07/05 09:50:49;;;;;;;1.58;0.80;;;19.00;76.00;;;;;;6232583;23;20030;-67
2022/07/05 09:53:15;;;;;;;4.40;1.15;;;18.90;84.90;;;;;;6238453;23;20023;-68
2022/07/05 09:55:41;;;;;;;1.27;0.52;;;18.90;80.90;;;;;;6208848;23;20020;-68
2022/07/05 09:58:07;;;;;;;7.47;1.25;;;18.90;74.40;;;;;;6238838;22;20020;-67
2022/07/05 10:00:33;;;;;;;2.08;0.77;;;19.20;64.20;;;;;;6236080;23;20104;-68
2022/07/05 10:03:02;;;;;;;3.13;0.70;;;19.50;71.20;;;;;;6236509;23;20062;-67
2022/07/05 10:05:32;;;;;;;4.70;1.25;;;19.60;76.00;;;;;;6236825;23;20020;-68
2022/07/05 10:07:59;;;;;;;1.60;0.80;;;19.40;71.50;;;;;;6236903;23;20027;-68
2022/07/05 10:10:30;;;;;;;2.35;0.75;;;19.30;62.30;;;;;;6239180;22;20043;-67
2022/07/05 10:13:02;;;;;;;2.33;0.75;;;19.10;78.00;;;;;;6260444;22;20394;-67
2022/07/05 10:15:32;;;;;;;6.72;1.00;;;19.10;71.30;;;;;;6237518;23;20035;-67
2022/07/05 10:18:08;;;;;;;15.90;1.35;;;19.00;76.80;;;;;;6237794;23;20023;-68
2022/07/05 10:20:36;;;;;;;4.78;0.80;;;19.10;88.90;;;;;;6237142;23;20020;-68
2022/07/05 10:23:07;;;;;;;7.03;0.93;;;19.00;85.60;;;;;;6236284;23;20055;-68
2022/07/05 10:25:37;;;;;;;3.63;1.02;;;18.90;88.30;;;;;;6237079;22;20345;-67
2022/07/05 10:28:05;;;;;;;3.17;1.05;;;18.70;80.50;;;;;;6258132;22;20393;-68
2022/07/05 10:30:32;;;;;;;3.97;0.95;;;18.50;81.00;;;;;;6235610;23;20027;-67
2022/07/05 10:33:01;;;;;;;4.03;0.90;;;18.40;74.80;;;;;;6234418;23;20155;-68
2022/07/05 10:35:27;;;;;;;3.45;0.88;;;18.40;84.50;;;;;;6235631;23;20087;-68
2022/07/05 10:37:54;;;;;;;4.82;1.02;;;18.20;72.00;;;;;;6231859;23;20016;-67
2022/07/05 10:40:20;;;;;;;3.05;0.85;;;18.10;84.20;;;;;;6235045;22;20127;-67
2022/07/05 10:42:50;;;;;;;3.47;0.88;;;18.10;85.90;;;;;;6235999;23;20333;-67
2022/07/05 10:45:35;;;;;;;2.47;0.80;;;18.20;90.20;;;;;;6238039;22;20564;-67
2022/07/05 10:48:12;;;;;;;8.55;0.85;;;18.30;84.90;;;;;;6237356;22;20051;-66
2022/07/05 10:50:49;;;;;;;3.00;1.00;;;18.40;90.20;;;;;;6237212;23;20343;-67
2022/07/05 10:53:26;;;;;;;4.15;1.58;;;18.40;73.70;;;;;;6238219;23;20382;-67
2022/07/05 10:55:57;;;;;;;2.67;1.40;;;18.70;81.50;;;;;;6234251;22;20008;-67
2022/07/05 10:58:30;;;;;;;1.70;0.55;;;19.00;92.70;;;;;;6238170;23;20024;-68
2022/07/05 11:01:18;;;;;;;1.50;0.70;;;19.20;84.30;;;;;;6210467;23;20016;-67
2022/07/05 11:04:07;;;;;;;6.20;1.10;;;19.10;80.10;;;;;;6235281;23;20461;-67
2022/07/05 11:06:39;;;;;;;5.82;1.20;;;18.80;74.90;;;;;;6237492;23;20024;-67
2022/07/05 11:09:11;;;;;;;3.85;0.93;;;18.60;81.40;;;;;;6236802;22;20104;-68
2022/07/05 11:11:41;;;;;;;3.40;0.77;;;18.50;94.30;;;;;;6238576;23;20027;-68
2022/07/05 11:14:22;;;;;;;5.60;1.13;;;18.60;92.80;;;;;;6237582;23;20020;-67
2022/07/05 11:17:11;;;;;;;4.25;0.82;;;18.70;81.60;;;;;;6236917;23;20074;-68
2022/07/05 11:19:58;;;;;;;5.80;0.82;;;18.60;88.30;;;;;;6238324;23;20030;-67
2022/07/05 11:22:24;;;;;;;4.80;0.98;;;18.40;86.20;;;;;;6237683;22;20070;-67
2022/07/05 11:24:51;;;;;;;1.98;0.90;;;18.30;88.30;;;;;;6237281;23;20012;-67
2022/07/05 11:27:16;;;;;;;1.85;0.70;;;18.30;84.80;;;;;;6238688;22;20339;-67
2022/07/05 11:29:51;;;;;;;2.67;0.73;;;18.40;87.10;;;;;;6237365;23;20020;-68
2022/07/05 11:32:17;;;;;;;2.13;0.60;;;18.50;82.60;;;;;;6238573;23;20020;-67
2022/07/05 11:34:48;;;;;;;3.75;0.70;;;18.70;80.10;;;;;;6236988;23;20027;-68
2022/07/05 11:37:13;;;;;;;1.40;0.60;;;19.00;50.00;;;;;;6238212;23;20109;-68
2022/07/05 11:39:42;;;;;;;2.60;0.63;;;19.20;68.30;;;;;;6237302;23;20020;-67
2022/07/05 11:42:09;;;;;;;4.03;0.73;;;19.40;85.50;;;;;;6235517;23;20027;-67
2022/07/05 11:44:40;;;;;;;6.47;1.58;;;19.20;91.70;;;;;;6236063;23;20020;-68
2022/07/05 11:47:06;;;;;;;11.15;0.90;;;18.90;94.80;;;;;;6235855;22;20020;-69
2022/07/05 11:49:32;;;;;;;5.88;1.52;;;18.80;98.20;;;;;;6238542;23;20222;-68
2022/07/05 11:52:02;;;;;;;5.35;1.55;;;18.90;93.90;;;;;;6238036;23;20381;-67
2022/07/05 11:54:30;;;;;;;2.40;0.90;;;18.90;97.50;;;;;;6238423;22;20026;-67
2022/07/05 11:56:57;;;;;;;5.90;0.90;;;19.00;97.60;;;;;;6237041;23;20016;-67
2022/07/05 11:59:24;;;;;;;6.22;1.23;;;19.00;93.00;;;;;;6239060;22;20020;-68
2022/07/05 12:01:51;;;;;;;3.03;1.27;;;18.80;97.20;;;;;;6239856;22;20016;-67
2022/07/05 12:04:23;;;;;;;5.90;0.90;;;18.70;99.90;;;;;;6238190;22;20059;-68
2022/07/05 12:06:50;;;;;;;3.08;0.80;;;18.60;98.10;;;;;;6263810;22;20051;-68
2022/07/05 12:09:22;;;;;;;2.38;0.80;;;18.50;98.50;;;;;;6237951;23;20352;-68
2022/07/05 12:14:50;;;;;;;6.07;0.90;;;18.10;99.90;;;;;;6239963;23;20020;-67
2022/07/05 12:17:18;;;;;;;7.85;1.13;;;18.00;99.90;;;;;;6236534;23;20099;-67
2022/07/05 12:19:45;;;;;;;1.52;0.80;;;18.10;99.90;;;;;;6239939;23;20020;-68
2022/07/05 12:22:12;;;;;;;5.00;0.82;;;18.40;99.90;;;;;;6238342;23;20895;-67
2022/07/05 12:24:38;;;;;;;2.75;0.90;;;18.80;93.50;;;;;;6239069;23;20016;-67
2022/07/05 12:27:05;;;;;;;4.95;1.02;;;18.90;93.70;;;;;;6237496;23;20388;-67
2022/07/05 12:29:31;;;;;;;3.75;0.93;;;18.90;93.60;;;;;;6237541;23;20317;-67
2022/07/05 12:32:08;;;;;;;3.85;1.10;;;18.80;93.10;;;;;;6236060;23;20020;-68
2022/07/05 12:34:35;;;;;;;4.97;0.90;;;18.50;92.60;;;;;;6238041;23;20016;-67
2022/07/05 12:37:00;;;;;;;3.08;1.00;;;18.30;96.70;;;;;;6237070;23;20397;-66
2022/07/05 12:39:26;;;;;;;6.95;1.08;;;18.10;97.70;;;;;;6238078;23;20047;-67
2022/07/05 12:41:52;;;;;;;4.40;1.45;;;18.00;96.90;;;;;;6238136;23;20123;-67
2022/07/05 12:44:19;;;;;;;4.10;1.08;;;17.80;95.70;;;;;;6236054;23;20056;-67
2022/07/05 12:46:46;;;;;;;5.00;1.90;;;17.70;97.00;;;;;;6238415;23;20016;-67
2022/07/05 12:49:11;;;;;;;5.45;2.17;;;17.60;97.80;;;;;;6238868;22;20070;-67
2022/07/05 12:51:39;;;;;;;11.52;1.70;;;17.60;94.00;;;;;;6238227;23;20513;-67
2022/07/05 13:00:07;;;;;;;1.27;1.10;;;17.60;85.00;;;;;;6236156;23;20083;-67
2022/07/05 13:02:41;;;;;;;6.18;1.27;;;17.60;84.10;;;;;;6237665;22;20347;-67
2022/07/05 13:05:18;;;;;;;4.22;1.15;;;17.60;87.40;;;;;;6260812;22;20031;-67